sensor_id;sensor_type;location;lat;lon;timestamp;P1;durP1;ratioP1;P2;durP2;ratioP2
7661;SDS011;30314;48.184;11.510;2022-10-17T00:06:38;11.63;;;4.60;;
7661;SDS011;30314;48.184;11.510;2022-10-17T00:09:06;12.10;;;5.30;;
7661;SDS011;30314;48.184;11.510;2022-10-17T00:11:34;9.90;;;4.97;;
7661;SDS011;30314;48.184;11.510;2022-10-17T00:14:02;7.73;;;4.27;;
7661;SDS011;30314;48.184;11.510;2022-10-17T00:16:31;7.90;;;4.90;;
7661;SDS011;30314;48.184;11.510;2022-10-17T00:19:03;6.20;;;3.70;;
7661;SDS011;30314;48.184;11.510;2022-10-17T00:21:31;10.30;;;5.10;;
7661;SDS011;30314;48.184;11.510;2022-10-17T00:23:59;7.60;;;4.07;;
7661;SDS011;30314;48.184;11.510;2022-10-17T00:26:28;8.90;;;4.83;;
7661;SDS011;30314;48.184;11.510;2022-10-17T00:28:55;12.43;;;5.07;;
7661;SDS011;30314;48.184;11.510;2022-10-17T00:31:23;10.20;;;4.03;;
7661;SDS011;30314;48.184;11.510;2022-10-17T00:33:52;9.37;;;4.87;;
7661;SDS011;30314;48.184;11.510;2022-10-17T00:36:21;9.27;;;4.63;;
7661;SDS011;30314;48.184;11.510;2022-10-17T00:38:51;10.97;;;5.70;;
7661;SDS011;30314;48.184;11.510;2022-10-17T00:41:21;7.83;;;4.77;;
7661;SDS011;30314;48.184;11.510;2022-10-17T00:43:51;7.00;;;4.27;;
7661;SDS011;30314;48.184;11.510;2022-10-17T00:46:21;7.30;;;4.00;;
7661;SDS011;30314;48.184;11.510;2022-10-17T00:48:51;5.73;;;4.10;;
7661;SDS011;30314;48.184;11.510;2022-10-17T00:51:24;14.00;;;6.17;;
7661;SDS011;30314;48.184;11.510;2022-10-17T00:53:57;11.00;;;4.73;;
7661;SDS011;30314;48.184;11.510;2022-10-17T00:56:27;10.93;;;4.83;;
7661;SDS011;30314;48.184;11.510;2022-10-17T00:58:57;7.17;;;4.40;;
7661;SDS011;30314;48.184;11.510;2022-10-17T01:01:25;12.27;;;4.70;;
7661;SDS011;30314;48.184;11.510;2022-10-17T01:03:54;8.40;;;4.83;;
7661;SDS011;30314;48.184;11.510;2022-10-17T01:06:22;12.07;;;4.30;;
7661;SDS011;30314;48.184;11.510;2022-10-17T01:08:49;7.37;;;4.70;;
7661;SDS011;30314;48.184;11.510;2022-10-17T01:11:20;10.87;;;4.57;;
7661;SDS011;30314;48.184;11.510;2022-10-17T01:13:56;7.70;;;4.30;;
7661;SDS011;30314;48.184;11.510;2022-10-17T01:16:32;7.27;;;4.10;;
7661;SDS011;30314;48.184;11.510;2022-10-17T01:19:11;16.73;;;4.80;;
7661;SDS011;30314;48.184;11.510;2022-10-17T01:21:54;8.50;;;4.90;;
7661;SDS011;30314;48.184;11.510;2022-10-17T01:24:36;6.73;;;4.40;;
7661;SDS011;30314;48.184;11.510;2022-10-17T01:27:25;10.87;;;4.60;;
7661;SDS011;30314;48.184;11.510;2022-10-17T01:30:22;11.20;;;5.00;;
7661;SDS011;30314;48.184;11.510;2022-10-17T01:33:09;11.33;;;4.37;;
7661;SDS011;30314;48.184;11.510;2022-10-17T01:35:45;9.80;;;5.57;;
7661;SDS011;30314;48.184;11.510;2022-10-17T01:38:20;6.80;;;4.37;;
7661;SDS011;30314;48.184;11.510;2022-10-17T01:40:51;7.23;;;4.13;;
7661;SDS011;30314;48.184;11.510;2022-10-17T01:43:27;9.33;;;4.20;;
7661;SDS011;30314;48.184;11.510;2022-10-17T01:46:02;8.27;;;4.30;;
7661;SDS011;30314;48.184;11.510;2022-10-17T01:48:40;5.17;;;3.30;;
7661;SDS011;30314;48.184;11.510;2022-10-17T01:51:12;7.10;;;4.10;;
7661;SDS011;30314;48.184;11.510;2022-10-17T01:53:46;6.83;;;3.33;;
7661;SDS011;30314;48.184;11.510;2022-10-17T01:56:19;5.97;;;3.00;;
7661;SDS011;30314;48.184;11.510;2022-10-17T01:58:51;9.00;;;3.33;;
7661;SDS011;30314;48.184;11.510;2022-10-17T02:01:21;4.13;;;3.03;;
7661;SDS011;30314;48.184;11.510;2022-10-17T02:03:53;5.53;;;2.80;;
7661;SDS011;30314;48.184;11.510;2022-10-17T02:06:24;6.30;;;3.07;;
7661;SDS011;30314;48.184;11.510;2022-10-17T02:08:51;5.53;;;3.40;;
7661;SDS011;30314;48.184;11.510;2022-10-17T02:11:20;6.83;;;2.90;;
7661;SDS011;30314;48.184;11.510;2022-10-17T02:13:54;4.53;;;3.00;;
7661;SDS011;30314;48.184;11.510;2022-10-17T02:16:37;6.53;;;2.73;;
7661;SDS011;30314;48.184;11.510;2022-10-17T02:19:20;4.83;;;3.27;;
7661;SDS011;30314;48.184;11.510;2022-10-17T02:22:03;6.07;;;3.10;;
7661;SDS011;30314;48.184;11.510;2022-10-17T02:24:39;6.90;;;2.50;;
7661;SDS011;30314;48.184;11.510;2022-10-17T02:27:14;3.73;;;2.27;;
7661;SDS011;30314;48.184;11.510;2022-10-17T02:29:46;4.60;;;2.77;;
7661;SDS011;30314;48.184;11.510;2022-10-17T02:32:18;4.10;;;2.13;;
7661;SDS011;30314;48.184;11.510;2022-10-17T02:34:53;3.70;;;2.53;;
7661;SDS011;30314;48.184;11.510;2022-10-17T02:37:24;4.90;;;3.00;;
7661;SDS011;30314;48.184;11.510;2022-10-17T02:39:56;5.47;;;2.70;;
7661;SDS011;30314;48.184;11.510;2022-10-17T02:42:25;4.33;;;2.50;;
7661;SDS011;30314;48.184;11.510;2022-10-17T02:44:56;6.33;;;2.83;;
7661;SDS011;30314;48.184;11.510;2022-10-17T02:47:27;4.37;;;2.50;;
7661;SDS011;30314;48.184;11.510;2022-10-17T02:50:02;5.90;;;2.63;;
7661;SDS011;30314;48.184;11.510;2022-10-17T02:52:32;2.60;;;2.17;;
7661;SDS011;30314;48.184;11.510;2022-10-17T02:55:05;17.23;;;3.43;;
7661;SDS011;30314;48.184;11.510;2022-10-17T02:57:39;4.03;;;2.30;;
7661;SDS011;30314;48.184;11.510;2022-10-17T03:00:12;6.57;;;2.93;;
7661;SDS011;30314;48.184;11.510;2022-10-17T03:02:46;4.63;;;2.77;;
7661;SDS011;30314;48.184;11.510;2022-10-17T03:05:17;5.93;;;3.30;;
7661;SDS011;30314;48.184;11.510;2022-10-17T03:07:46;4.80;;;2.67;;
7661;SDS011;30314;48.184;11.510;2022-10-17T03:10:14;7.67;;;3.00;;
7661;SDS011;30314;48.184;11.510;2022-10-17T03:12:42;4.87;;;2.90;;
7661;SDS011;30314;48.184;11.510;2022-10-17T03:15:11;6.23;;;2.53;;
7661;SDS011;30314;48.184;11.510;2022-10-17T03:17:40;5.77;;;2.83;;
7661;SDS011;30314;48.184;11.510;2022-10-17T03:20:08;4.53;;;2.73;;
7661;SDS011;30314;48.184;11.510;2022-10-17T03:22:38;6.90;;;2.63;;
7661;SDS011;30314;48.184;11.510;2022-10-17T03:25:06;5.30;;;2.60;;
7661;SDS011;30314;48.184;11.510;2022-10-17T03:27:35;6.27;;;2.17;;
7661;SDS011;30314;48.184;11.510;2022-10-17T03:30:03;4.83;;;2.63;;
7661;SDS011;30314;48.184;11.510;2022-10-17T03:32:33;7.13;;;2.43;;
7661;SDS011;30314;48.184;11.510;2022-10-17T03:35:02;7.47;;;2.70;;
7661;SDS011;30314;48.184;11.510;2022-10-17T03:37:30;4.70;;;2.40;;
7661;SDS011;30314;48.184;11.510;2022-10-17T03:39:59;10.37;;;2.43;;
7661;SDS011;30314;48.184;11.510;2022-10-17T03:42:27;1.93;;;1.50;;
7661;SDS011;30314;48.184;11.510;2022-10-17T03:44:56;4.40;;;2.30;;
7661;SDS011;30314;48.184;11.510;2022-10-17T03:47:23;9.43;;;2.83;;
7661;SDS011;30314;48.184;11.510;2022-10-17T03:49:51;4.60;;;3.13;;
7661;SDS011;30314;48.184;11.510;2022-10-17T03:52:20;5.70;;;2.90;;
7661;SDS011;30314;48.184;11.510;2022-10-17T03:54:48;5.53;;;2.63;;
7661;SDS011;30314;48.184;11.510;2022-10-17T03:57:18;5.40;;;3.33;;
7661;SDS011;30314;48.184;11.510;2022-10-17T03:59:46;4.47;;;3.00;;
7661;SDS011;30314;48.184;11.510;2022-10-17T04:02:17;4.90;;;3.03;;
7661;SDS011;30314;48.184;11.510;2022-10-17T04:04:45;3.30;;;2.30;;
7661;SDS011;30314;48.184;11.510;2022-10-17T04:07:12;8.40;;;2.93;;
7661;SDS011;30314;48.184;11.510;2022-10-17T04:09:43;5.60;;;2.60;;
7661;SDS011;30314;48.184;11.510;2022-10-17T04:12:19;7.83;;;2.73;;
7661;SDS011;30314;48.184;11.510;2022-10-17T04:14:47;5.23;;;2.33;;
7661;SDS011;30314;48.184;11.510;2022-10-17T04:17:15;6.23;;;3.43;;
7661;SDS011;30314;48.184;11.510;2022-10-17T04:19:43;4.80;;;2.40;;
7661;SDS011;30314;48.184;11.510;2022-10-17T04:22:13;6.17;;;3.07;;
7661;SDS011;30314;48.184;11.510;2022-10-17T04:24:41;6.87;;;2.83;;
7661;SDS011;30314;48.184;11.510;2022-10-17T04:27:26;3.93;;;2.67;;
7661;SDS011;30314;48.184;11.510;2022-10-17T04:29:54;8.83;;;3.33;;
7661;SDS011;30314;48.184;11.510;2022-10-17T04:32:23;6.00;;;3.13;;
7661;SDS011;30314;48.184;11.510;2022-10-17T04:35:02;6.57;;;3.33;;
7661;SDS011;30314;48.184;11.510;2022-10-17T04:37:30;6.93;;;2.87;;
7661;SDS011;30314;48.184;11.510;2022-10-17T04:40:01;5.63;;;3.17;;
7661;SDS011;30314;48.184;11.510;2022-10-17T04:42:32;15.20;;;2.80;;
7661;SDS011;30314;48.184;11.510;2022-10-17T04:45:00;11.03;;;3.47;;
7661;SDS011;30314;48.184;11.510;2022-10-17T04:47:28;5.60;;;3.17;;
7661;SDS011;30314;48.184;11.510;2022-10-17T04:49:55;7.80;;;3.57;;
7661;SDS011;30314;48.184;11.510;2022-10-17T04:52:23;4.87;;;2.60;;
7661;SDS011;30314;48.184;11.510;2022-10-17T04:54:52;7.70;;;2.83;;
7661;SDS011;30314;48.184;11.510;2022-10-17T04:57:20;4.10;;;2.70;;
7661;SDS011;30314;48.184;11.510;2022-10-17T05:00:00;22.57;;;3.97;;
7661;SDS011;30314;48.184;11.510;2022-10-17T05:02:57;10.63;;;3.40;;
7661;SDS011;30314;48.184;11.510;2022-10-17T05:05:26;4.00;;;2.47;;
7661;SDS011;30314;48.184;11.510;2022-10-17T05:07:55;9.17;;;3.73;;
7661;SDS011;30314;48.184;11.510;2022-10-17T05:10:27;7.37;;;2.80;;
7661;SDS011;30314;48.184;11.510;2022-10-17T05:12:56;4.73;;;3.30;;
7661;SDS011;30314;48.184;11.510;2022-10-17T05:15:29;5.07;;;2.73;;
7661;SDS011;30314;48.184;11.510;2022-10-17T05:17:57;6.80;;;3.67;;
7661;SDS011;30314;48.184;11.510;2022-10-17T05:20:27;8.10;;;3.60;;
7661;SDS011;30314;48.184;11.510;2022-10-17T05:22:57;5.00;;;2.87;;
7661;SDS011;30314;48.184;11.510;2022-10-17T05:25:29;4.50;;;2.60;;
7661;SDS011;30314;48.184;11.510;2022-10-17T05:27:56;5.40;;;2.63;;
7661;SDS011;30314;48.184;11.510;2022-10-17T05:30:24;10.73;;;2.93;;
7661;SDS011;30314;48.184;11.510;2022-10-17T05:32:58;7.87;;;2.57;;
7661;SDS011;30314;48.184;11.510;2022-10-17T05:35:26;5.90;;;3.10;;
7661;SDS011;30314;48.184;11.510;2022-10-17T05:37:54;4.00;;;2.93;;
7661;SDS011;30314;48.184;11.510;2022-10-17T05:40:23;10.57;;;3.50;;
7661;SDS011;30314;48.184;11.510;2022-10-17T05:42:52;6.67;;;3.00;;
7661;SDS011;30314;48.184;11.510;2022-10-17T05:45:21;8.33;;;3.00;;
7661;SDS011;30314;48.184;11.510;2022-10-17T05:47:49;6.13;;;3.00;;
7661;SDS011;30314;48.184;11.510;2022-10-17T05:50:18;8.83;;;3.33;;
7661;SDS011;30314;48.184;11.510;2022-10-17T05:53:03;4.70;;;2.93;;
7661;SDS011;30314;48.184;11.510;2022-10-17T05:55:36;6.00;;;4.03;;
7661;SDS011;30314;48.184;11.510;2022-10-17T05:58:05;6.70;;;3.33;;
7661;SDS011;30314;48.184;11.510;2022-10-17T06:00:42;7.13;;;2.93;;
7661;SDS011;30314;48.184;11.510;2022-10-17T06:03:15;5.17;;;3.30;;
7661;SDS011;30314;48.184;11.510;2022-10-17T06:05:44;7.40;;;3.83;;
7661;SDS011;30314;48.184;11.510;2022-10-17T06:08:12;8.27;;;3.70;;
7661;SDS011;30314;48.184;11.510;2022-10-17T06:10:41;9.23;;;3.30;;
7661;SDS011;30314;48.184;11.510;2022-10-17T06:13:09;6.53;;;3.40;;
7661;SDS011;30314;48.184;11.510;2022-10-17T06:15:38;7.00;;;3.90;;
7661;SDS011;30314;48.184;11.510;2022-10-17T06:18:07;6.80;;;3.80;;
7661;SDS011;30314;48.184;11.510;2022-10-17T06:20:35;6.70;;;3.60;;
7661;SDS011;30314;48.184;11.510;2022-10-17T06:23:05;6.93;;;3.33;;
7661;SDS011;30314;48.184;11.510;2022-10-17T06:25:59;9.90;;;3.87;;
7661;SDS011;30314;48.184;11.510;2022-10-17T06:28:28;6.37;;;4.10;;
7661;SDS011;30314;48.184;11.510;2022-10-17T06:30:56;7.90;;;4.17;;
7661;SDS011;30314;48.184;11.510;2022-10-17T06:33:25;10.83;;;4.93;;
7661;SDS011;30314;48.184;11.510;2022-10-17T06:35:53;7.27;;;4.20;;
7661;SDS011;30314;48.184;11.510;2022-10-17T06:38:25;9.07;;;4.30;;
7661;SDS011;30314;48.184;11.510;2022-10-17T06:41:01;7.50;;;4.40;;
7661;SDS011;30314;48.184;11.510;2022-10-17T06:43:30;6.50;;;3.70;;
7661;SDS011;30314;48.184;11.510;2022-10-17T06:46:24;12.43;;;4.17;;
7661;SDS011;30314;48.184;11.510;2022-10-17T06:49:00;7.10;;;4.23;;
7661;SDS011;30314;48.184;11.510;2022-10-17T06:51:50;7.80;;;3.67;;
7661;SDS011;30314;48.184;11.510;2022-10-17T06:54:25;7.43;;;4.00;;
7661;SDS011;30314;48.184;11.510;2022-10-17T06:57:19;5.63;;;3.40;;
7661;SDS011;30314;48.184;11.510;2022-10-17T06:59:58;9.20;;;4.10;;
7661;SDS011;30314;48.184;11.510;2022-10-17T07:02:33;11.63;;;4.07;;
7661;SDS011;30314;48.184;11.510;2022-10-17T07:05:00;8.47;;;4.57;;
7661;SDS011;30314;48.184;11.510;2022-10-17T07:07:29;16.23;;;5.20;;
7661;SDS011;30314;48.184;11.510;2022-10-17T07:09:58;19.50;;;5.20;;
7661;SDS011;30314;48.184;11.510;2022-10-17T07:12:26;6.33;;;3.77;;
7661;SDS011;30314;48.184;11.510;2022-10-17T07:14:54;6.53;;;4.10;;
7661;SDS011;30314;48.184;11.510;2022-10-17T07:17:21;13.60;;;5.37;;
7661;SDS011;30314;48.184;11.510;2022-10-17T07:19:49;19.40;;;5.37;;
7661;SDS011;30314;48.184;11.510;2022-10-17T07:22:17;8.80;;;5.20;;
7661;SDS011;30314;48.184;11.510;2022-10-17T07:24:47;9.77;;;5.30;;
7661;SDS011;30314;48.184;11.510;2022-10-17T07:27:27;12.67;;;4.97;;
7661;SDS011;30314;48.184;11.510;2022-10-17T07:29:57;5.77;;;4.40;;
7661;SDS011;30314;48.184;11.510;2022-10-17T07:32:34;10.93;;;5.47;;
7661;SDS011;30314;48.184;11.510;2022-10-17T07:35:03;11.43;;;5.23;;
7661;SDS011;30314;48.184;11.510;2022-10-17T07:37:32;10.17;;;5.17;;
7661;SDS011;30314;48.184;11.510;2022-10-17T07:40:00;7.33;;;4.30;;
7661;SDS011;30314;48.184;11.510;2022-10-17T07:42:29;10.07;;;5.60;;
7661;SDS011;30314;48.184;11.510;2022-10-17T07:44:57;9.57;;;4.90;;
7661;SDS011;30314;48.184;11.510;2022-10-17T07:47:27;9.00;;;5.13;;
7661;SDS011;30314;48.184;11.510;2022-10-17T07:49:58;8.63;;;4.60;;
7661;SDS011;30314;48.184;11.510;2022-10-17T07:52:25;8.00;;;4.43;;
7661;SDS011;30314;48.184;11.510;2022-10-17T07:54:53;7.13;;;4.10;;
7661;SDS011;30314;48.184;11.510;2022-10-17T07:57:21;9.93;;;4.90;;
7661;SDS011;30314;48.184;11.510;2022-10-17T07:59:50;9.33;;;4.57;;
7661;SDS011;30314;48.184;11.510;2022-10-17T08:02:20;7.50;;;4.00;;
7661;SDS011;30314;48.184;11.510;2022-10-17T08:04:49;7.77;;;4.87;;
7661;SDS011;30314;48.184;11.510;2022-10-17T08:07:17;6.53;;;3.70;;
7661;SDS011;30314;48.184;11.510;2022-10-17T08:09:52;8.27;;;4.17;;
7661;SDS011;30314;48.184;11.510;2022-10-17T08:12:19;7.20;;;4.00;;
7661;SDS011;30314;48.184;11.510;2022-10-17T08:14:47;14.33;;;4.70;;
7661;SDS011;30314;48.184;11.510;2022-10-17T08:17:16;8.60;;;4.37;;
7661;SDS011;30314;48.184;11.510;2022-10-17T08:19:44;5.90;;;3.73;;
7661;SDS011;30314;48.184;11.510;2022-10-17T08:22:12;3.50;;;2.70;;
7661;SDS011;30314;48.184;11.510;2022-10-17T08:24:39;10.63;;;3.87;;
7661;SDS011;30314;48.184;11.510;2022-10-17T08:27:08;4.03;;;2.80;;
7661;SDS011;30314;48.184;11.510;2022-10-17T08:29:38;8.57;;;3.47;;
7661;SDS011;30314;48.184;11.510;2022-10-17T08:32:06;5.17;;;3.07;;
7661;SDS011;30314;48.184;11.510;2022-10-17T08:34:37;6.00;;;3.30;;
7661;SDS011;30314;48.184;11.510;2022-10-17T08:37:04;5.40;;;3.30;;
7661;SDS011;30314;48.184;11.510;2022-10-17T08:39:32;7.40;;;3.60;;
7661;SDS011;30314;48.184;11.510;2022-10-17T08:42:02;6.33;;;3.17;;
7661;SDS011;30314;48.184;11.510;2022-10-17T08:44:48;6.37;;;3.60;;
7661;SDS011;30314;48.184;11.510;2022-10-17T08:47:25;9.67;;;3.00;;
7661;SDS011;30314;48.184;11.510;2022-10-17T08:49:57;4.37;;;2.90;;
7661;SDS011;30314;48.184;11.510;2022-10-17T08:52:31;5.17;;;3.13;;
7661;SDS011;30314;48.184;11.510;2022-10-17T08:55:04;5.67;;;2.73;;
7661;SDS011;30314;48.184;11.510;2022-10-17T08:57:41;6.30;;;2.50;;
7661;SDS011;30314;48.184;11.510;2022-10-17T09:00:12;2.77;;;2.00;;
7661;SDS011;30314;48.184;11.510;2022-10-17T09:02:47;3.23;;;2.10;;
7661;SDS011;30314;48.184;11.510;2022-10-17T09:05:28;4.40;;;1.90;;
7661;SDS011;30314;48.184;11.510;2022-10-17T09:08:08;3.30;;;2.27;;
7661;SDS011;30314;48.184;11.510;2022-10-17T09:10:46;7.20;;;2.60;;
7661;SDS011;30314;48.184;11.510;2022-10-17T09:13:25;6.00;;;2.30;;
7661;SDS011;30314;48.184;11.510;2022-10-17T09:16:02;3.50;;;2.37;;
7661;SDS011;30314;48.184;11.510;2022-10-17T09:18:37;6.10;;;2.50;;
7661;SDS011;30314;48.184;11.510;2022-10-17T09:21:13;5.07;;;2.13;;
7661;SDS011;30314;48.184;11.510;2022-10-17T09:23:47;4.33;;;2.20;;
7661;SDS011;30314;48.184;11.510;2022-10-17T09:26:34;3.50;;;2.30;;
7661;SDS011;30314;48.184;11.510;2022-10-17T09:29:04;8.37;;;2.20;;
7661;SDS011;30314;48.184;11.510;2022-10-17T09:31:41;5.00;;;2.47;;
7661;SDS011;30314;48.184;11.510;2022-10-17T09:34:13;10.83;;;3.00;;
7661;SDS011;30314;48.184;11.510;2022-10-17T09:36:43;7.60;;;2.83;;
7661;SDS011;30314;48.184;11.510;2022-10-17T09:39:12;3.57;;;2.87;;
7661;SDS011;30314;48.184;11.510;2022-10-17T09:41:42;6.87;;;2.90;;
7661;SDS011;30314;48.184;11.510;2022-10-17T09:44:14;5.27;;;2.70;;
7661;SDS011;30314;48.184;11.510;2022-10-17T09:46:48;9.60;;;2.30;;
7661;SDS011;30314;48.184;11.510;2022-10-17T09:49:30;2.83;;;1.90;;
7661;SDS011;30314;48.184;11.510;2022-10-17T09:52:01;6.63;;;2.27;;
7661;SDS011;30314;48.184;11.510;2022-10-17T09:54:32;5.40;;;2.13;;
7661;SDS011;30314;48.184;11.510;2022-10-17T09:57:08;3.00;;;2.30;;
7661;SDS011;30314;48.184;11.510;2022-10-17T09:59:38;9.23;;;2.50;;
7661;SDS011;30314;48.184;11.510;2022-10-17T10:02:07;3.23;;;2.13;;
7661;SDS011;30314;48.184;11.510;2022-10-17T10:04:50;10.50;;;2.50;;
7661;SDS011;30314;48.184;11.510;2022-10-17T10:07:36;3.37;;;2.60;;
7661;SDS011;30314;48.184;11.510;2022-10-17T10:10:05;13.83;;;2.90;;
7661;SDS011;30314;48.184;11.510;2022-10-17T10:13:00;3.43;;;2.10;;
7661;SDS011;30314;48.184;11.510;2022-10-17T10:15:32;5.90;;;2.20;;
7661;SDS011;30314;48.184;11.510;2022-10-17T10:18:02;5.73;;;2.27;;
7661;SDS011;30314;48.184;11.510;2022-10-17T10:21:02;2.60;;;1.77;;
7661;SDS011;30314;48.184;11.510;2022-10-17T10:23:34;4.30;;;1.73;;
7661;SDS011;30314;48.184;11.510;2022-10-17T10:26:16;6.43;;;2.07;;
7661;SDS011;30314;48.184;11.510;2022-10-17T10:28:51;3.10;;;1.83;;
7661;SDS011;30314;48.184;11.510;2022-10-17T10:31:27;5.63;;;2.00;;
7661;SDS011;30314;48.184;11.510;2022-10-17T10:33:58;3.73;;;1.50;;
7661;SDS011;30314;48.184;11.510;2022-10-17T10:36:41;13.30;;;2.10;;
7661;SDS011;30314;48.184;11.510;2022-10-17T10:39:18;4.50;;;1.80;;
7661;SDS011;30314;48.184;11.510;2022-10-17T10:41:53;3.27;;;2.03;;
7661;SDS011;30314;48.184;11.510;2022-10-17T10:44:23;5.20;;;2.33;;
7661;SDS011;30314;48.184;11.510;2022-10-17T10:47:07;4.63;;;2.40;;
7661;SDS011;30314;48.184;11.510;2022-10-17T10:49:42;4.87;;;1.80;;
7661;SDS011;30314;48.184;11.510;2022-10-17T10:52:17;2.40;;;1.70;;
7661;SDS011;30314;48.184;11.510;2022-10-17T10:54:54;3.17;;;1.63;;
7661;SDS011;30314;48.184;11.510;2022-10-17T10:57:29;5.57;;;2.10;;
7661;SDS011;30314;48.184;11.510;2022-10-17T11:00:03;2.87;;;1.60;;
7661;SDS011;30314;48.184;11.510;2022-10-17T11:02:40;4.20;;;1.90;;
7661;SDS011;30314;48.184;11.510;2022-10-17T11:05:15;4.73;;;2.00;;
7661;SDS011;30314;48.184;11.510;2022-10-17T11:07:49;5.93;;;1.77;;
7661;SDS011;30314;48.184;11.510;2022-10-17T11:10:24;3.73;;;1.93;;
7661;SDS011;30314;48.184;11.510;2022-10-17T11:12:59;2.77;;;1.50;;
7661;SDS011;30314;48.184;11.510;2022-10-17T11:15:33;2.60;;;1.77;;
7661;SDS011;30314;48.184;11.510;2022-10-17T11:18:07;3.20;;;2.13;;
7661;SDS011;30314;48.184;11.510;2022-10-17T11:20:41;3.90;;;2.13;;
7661;SDS011;30314;48.184;11.510;2022-10-17T11:23:18;3.40;;;2.33;;
7661;SDS011;30314;48.184;11.510;2022-10-17T11:25:51;2.40;;;1.43;;
7661;SDS011;30314;48.184;11.510;2022-10-17T11:28:22;2.37;;;1.80;;
7661;SDS011;30314;48.184;11.510;2022-10-17T11:30:51;6.27;;;2.00;;
7661;SDS011;30314;48.184;11.510;2022-10-17T11:33:24;3.60;;;1.87;;
7661;SDS011;30314;48.184;11.510;2022-10-17T11:35:58;3.53;;;2.37;;
7661;SDS011;30314;48.184;11.510;2022-10-17T11:38:35;4.43;;;1.80;;
7661;SDS011;30314;48.184;11.510;2022-10-17T11:41:13;5.30;;;1.80;;
7661;SDS011;30314;48.184;11.510;2022-10-17T11:43:44;4.93;;;2.07;;
7661;SDS011;30314;48.184;11.510;2022-10-17T11:46:18;3.93;;;2.10;;
7661;SDS011;30314;48.184;11.510;2022-10-17T11:48:56;2.63;;;1.63;;
7661;SDS011;30314;48.184;11.510;2022-10-17T11:51:30;3.00;;;1.77;;
7661;SDS011;30314;48.184;11.510;2022-10-17T11:54:26;3.07;;;1.70;;
7661;SDS011;30314;48.184;11.510;2022-10-17T11:57:05;4.47;;;1.63;;
7661;SDS011;30314;48.184;11.510;2022-10-17T11:59:48;3.50;;;1.43;;
7661;SDS011;30314;48.184;11.510;2022-10-17T12:02:26;2.13;;;1.60;;
7661;SDS011;30314;48.184;11.510;2022-10-17T12:05:00;5.73;;;3.03;;
7661;SDS011;30314;48.184;11.510;2022-10-17T12:07:35;3.60;;;2.30;;
7661;SDS011;30314;48.184;11.510;2022-10-17T12:10:15;2.50;;;1.53;;
7661;SDS011;30314;48.184;11.510;2022-10-17T12:12:52;5.60;;;1.60;;
7661;SDS011;30314;48.184;11.510;2022-10-17T12:15:27;1.93;;;1.30;;
7661;SDS011;30314;48.184;11.510;2022-10-17T12:17:57;4.07;;;1.60;;
7661;SDS011;30314;48.184;11.510;2022-10-17T12:20:34;5.03;;;2.40;;
7661;SDS011;30314;48.184;11.510;2022-10-17T12:25:52;5.53;;;2.57;;
7661;SDS011;30314;48.184;11.510;2022-10-17T12:28:30;2.97;;;1.77;;
7661;SDS011;30314;48.184;11.510;2022-10-17T12:30:59;2.50;;;1.70;;
7661;SDS011;30314;48.184;11.510;2022-10-17T12:33:32;3.10;;;1.33;;
7661;SDS011;30314;48.184;11.510;2022-10-17T12:42:32;7.80;;;1.93;;
7661;SDS011;30314;48.184;11.510;2022-10-17T12:48:24;1.47;;;1.13;;
7661;SDS011;30314;48.184;11.510;2022-10-17T12:54:56;1.90;;;1.60;;
7661;SDS011;30314;48.184;11.510;2022-10-17T12:57:39;5.90;;;1.20;;
7661;SDS011;30314;48.184;11.510;2022-10-17T13:00:15;2.97;;;1.50;;
7661;SDS011;30314;48.184;11.510;2022-10-17T13:02:48;3.80;;;1.50;;
7661;SDS011;30314;48.184;11.510;2022-10-17T13:05:20;2.50;;;1.20;;
7661;SDS011;30314;48.184;11.510;2022-10-17T13:07:53;4.10;;;1.30;;
7661;SDS011;30314;48.184;11.510;2022-10-17T13:10:23;2.10;;;1.03;;
7661;SDS011;30314;48.184;11.510;2022-10-17T13:12:59;10.83;;;2.37;;
7661;SDS011;30314;48.184;11.510;2022-10-17T13:15:31;2.93;;;1.50;;
7661;SDS011;30314;48.184;11.510;2022-10-17T13:18:02;1.90;;;1.40;;
7661;SDS011;30314;48.184;11.510;2022-10-17T13:20:30;3.03;;;1.50;;
7661;SDS011;30314;48.184;11.510;2022-10-17T13:22:58;7.40;;;1.43;;
7661;SDS011;30314;48.184;11.510;2022-10-17T13:25:26;3.67;;;1.53;;
7661;SDS011;30314;48.184;11.510;2022-10-17T13:28:05;4.77;;;2.10;;
7661;SDS011;30314;48.184;11.510;2022-10-17T13:30:38;5.03;;;1.57;;
7661;SDS011;30314;48.184;11.510;2022-10-17T13:33:17;4.10;;;1.60;;
7661;SDS011;30314;48.184;11.510;2022-10-17T13:35:55;6.03;;;1.43;;
7661;SDS011;30314;48.184;11.510;2022-10-17T13:38:27;1.80;;;1.07;;
7661;SDS011;30314;48.184;11.510;2022-10-17T13:41:01;3.20;;;1.30;;
7661;SDS011;30314;48.184;11.510;2022-10-17T13:43:50;3.17;;;1.50;;
7661;SDS011;30314;48.184;11.510;2022-10-17T13:46:24;2.50;;;1.30;;
7661;SDS011;30314;48.184;11.510;2022-10-17T13:49:10;1.50;;;1.23;;
7661;SDS011;30314;48.184;11.510;2022-10-17T13:51:43;2.50;;;1.37;;
7661;SDS011;30314;48.184;11.510;2022-10-17T13:54:16;2.47;;;1.20;;
7661;SDS011;30314;48.184;11.510;2022-10-17T13:56:44;3.80;;;1.20;;
7661;SDS011;30314;48.184;11.510;2022-10-17T13:59:17;6.30;;;1.20;;
7661;SDS011;30314;48.184;11.510;2022-10-17T14:01:48;2.07;;;1.50;;
7661;SDS011;30314;48.184;11.510;2022-10-17T14:04:18;6.20;;;1.53;;
7661;SDS011;30314;48.184;11.510;2022-10-17T14:06:46;3.83;;;1.57;;
7661;SDS011;30314;48.184;11.510;2022-10-17T14:09:20;5.10;;;1.50;;
7661;SDS011;30314;48.184;11.510;2022-10-17T14:11:58;2.70;;;1.80;;
7661;SDS011;30314;48.184;11.510;2022-10-17T14:14:28;2.83;;;1.63;;
7661;SDS011;30314;48.184;11.510;2022-10-17T14:17:16;2.37;;;1.67;;
7661;SDS011;30314;48.184;11.510;2022-10-17T14:19:52;2.87;;;1.73;;
7661;SDS011;30314;48.184;11.510;2022-10-17T14:22:41;2.27;;;1.37;;
7661;SDS011;30314;48.184;11.510;2022-10-17T14:25:26;3.07;;;1.40;;
7661;SDS011;30314;48.184;11.510;2022-10-17T14:27:59;2.27;;;1.80;;
7661;SDS011;30314;48.184;11.510;2022-10-17T14:30:33;2.93;;;1.67;;
7661;SDS011;30314;48.184;11.510;2022-10-17T14:33:22;3.30;;;1.80;;
7661;SDS011;30314;48.184;11.510;2022-10-17T14:35:54;5.03;;;1.40;;
7661;SDS011;30314;48.184;11.510;2022-10-17T14:38:24;3.37;;;1.63;;
7661;SDS011;30314;48.184;11.510;2022-10-17T14:40:54;2.27;;;1.17;;
7661;SDS011;30314;48.184;11.510;2022-10-17T14:43:50;2.00;;;1.33;;
7661;SDS011;30314;48.184;11.510;2022-10-17T14:46:19;3.17;;;1.73;;
7661;SDS011;30314;48.184;11.510;2022-10-17T14:48:50;3.03;;;1.40;;
7661;SDS011;30314;48.184;11.510;2022-10-17T14:51:21;3.10;;;1.60;;
7661;SDS011;30314;48.184;11.510;2022-10-17T14:53:58;3.90;;;1.50;;
7661;SDS011;30314;48.184;11.510;2022-10-17T14:56:35;3.67;;;1.37;;
7661;SDS011;30314;48.184;11.510;2022-10-17T14:59:06;2.00;;;1.30;;
7661;SDS011;30314;48.184;11.510;2022-10-17T15:01:43;8.80;;;1.50;;
7661;SDS011;30314;48.184;11.510;2022-10-17T15:04:11;2.50;;;1.90;;
7661;SDS011;30314;48.184;11.510;2022-10-17T15:06:40;6.60;;;1.60;;
7661;SDS011;30314;48.184;11.510;2022-10-17T15:09:08;2.20;;;1.70;;
7661;SDS011;30314;48.184;11.510;2022-10-17T15:11:36;2.37;;;1.30;;
7661;SDS011;30314;48.184;11.510;2022-10-17T15:14:04;3.10;;;1.40;;
7661;SDS011;30314;48.184;11.510;2022-10-17T15:16:32;6.70;;;1.10;;
7661;SDS011;30314;48.184;11.510;2022-10-17T15:19:01;1.80;;;1.30;;
7661;SDS011;30314;48.184;11.510;2022-10-17T15:21:28;1.87;;;1.40;;
7661;SDS011;30314;48.184;11.510;2022-10-17T15:24:08;2.80;;;1.40;;
7661;SDS011;30314;48.184;11.510;2022-10-17T15:26:36;2.40;;;1.50;;
7661;SDS011;30314;48.184;11.510;2022-10-17T15:29:04;2.90;;;2.07;;
7661;SDS011;30314;48.184;11.510;2022-10-17T15:31:32;3.43;;;2.10;;
7661;SDS011;30314;48.184;11.510;2022-10-17T15:34:01;2.73;;;1.87;;
7661;SDS011;30314;48.184;11.510;2022-10-17T15:36:29;6.20;;;2.70;;
7661;SDS011;30314;48.184;11.510;2022-10-17T15:39:00;3.83;;;2.53;;
7661;SDS011;30314;48.184;11.510;2022-10-17T15:41:30;7.47;;;3.07;;